aviador You're here:

KFOK Decoded Metar

WEST HAMPTON BEACH in NY, USA
Report Time2018-06-22 02:53:00
UTC Time2018-06-22 03:09:37
Flight Rules lifr LIFR
Wind120° at 03 kt
W.Decomp.*RWY 15: 2.9 kt HW 0.9 kt LCW
RWY 19: 1.6 kt HW 2.5 kt LCW
RWY 06: 0.9 kt HW 2.9 kt RCW
W.Rank120° ranks 30
Current wind is below 120° avg. (6.5)
Visibility1207 m
Phenomena:Mist
Clouds:N/A
Expected CloudBase > 400 ft AGL from Temp-Dew spread
Ceiling200 ft
Temp17°C (ISA +2)
Dew Point16°C (94% RH)
QNH1012 hPa
Density Alt643 ft
Elevation108 ft
Report Wrong Elevation
Raw Report
KFOK 220253Z 12003KT 3/4SM BR VV002 17/16 A2989 RMK AO2 SLP121
T01720161 51023=

Extra information for KFOK:More info

Metar Taf Metar & Taf Last 4 Metars F.Rules Stats Wind Profile Meteogram Temp Stats Airport Information Weather charts Add Link Nearby VenuesMetar ALERT Operation Metar Decoded Social comments

AIRNAV info for KFOK